Pagina principală
METAR-TAF:

METAR-TAF

Aeroporturi :

Resistencia, Argentina

Latitudine: 27-27S, longitudine: 059-03W, elevație: 53 m

Observații meteo curente

Raportul a fost făcut în urmă cu 34 de minute, la 10:00 UTC
Vânt 3 kt de la Nord
Temperatură 13°C
Umiditate 100%
Presiune 1020 hPa
Vizibilitate: 5000 m
aer cețos,

METAR: SARE 181000Z 36003KT 5000 BR NSC 13/13 Q1020

Ora: 07:34 (10:34 UTC)

Prognoză

Raportul a fost făcut în urmă cu 5 ore și 34 de minute, la 05:00 UTC
Prognoză valabilă de la 18 ora 06 UTC la 19 ora 06 UTC
Vânt 2 kt din direcții variabile
Vizibilitate de 10 km sau mai mult
nu există nori sub 1.500 m și nici cumulonimbus
Probabilitate 30%
de la 18 ora 07 UTC la 18 ora 11 UTC
Vizibilitate: 3000 m
aer cețos,

TAF: SARE 180500Z 1806/1906 VRB02KT CAVOK TX26/1818Z TN13/1810Z PROB30 1807/1811 3000 BR NSC

Observații și prognoze meteo pentru peste 4.000 de aeroporturi (rapoarte METAR și TAF).

Stațiile disponibile sunt reprezentate pe hartă prin puncte galbene și roșii.

Țineți indicatorul mouse-ului pe punctul dorit pentru a vedea denumirea stației.

Apoi, faceți clic pentru a vedea observațiile și prognozele meteorologice.

Pentru a schimba harta: Pentru mărire, faceți clic pe butoanele verzi cu cruce neagră; pentru micșorare, pe butonul verde cu o liniuță; pentru hărți învecinate, pe săgețile verzi.


METAR-TAF: